Time,TemperatureF,DewpointF,PressureIn,WindDirection,WindDirectionDegrees,WindSpeedMPH,WindSpeedGustMPH,Humidity,HourlyPrecipIn,Conditions,Clouds,dailyrainin,SoftwareType,DateUTC
2013-10-29 00:14:00,50.0,37.0,30.29,NE,53,8.0,10.0,61,-99.99,,,-99.99,,2013-10-29 04:14:00,
2013-10-29 00:24:00,49.0,38.0,30.29,NE,52,7.0,13.0,66,-99.99,,,-99.99,,2013-10-29 04:24:00,
2013-10-29 00:57:00,48.0,38.0,30.30,ENE,66,4.0,12.0,68,-99.99,,,-99.99,,2013-10-29 04:57:00,
2013-10-29 01:22:00,47.0,36.0,30.32,ENE,74,7.0,14.0,66,-99.99,,,-99.99,,2013-10-29 05:22:00,
2013-10-29 01:52:00,46.0,36.0,30.32,NE,37,8.0,12.0,67,-99.99,,,-99.99,,2013-10-29 05:52:00,
2013-10-29 02:16:00,45.0,34.0,30.32,NNE,21,10.0,15.0,66,-99.99,,,-99.99,,2013-10-29 06:16:00,
2013-10-29 02:26:00,45.0,34.0,30.32,ENE,70,8.0,16.0,66,-99.99,,,-99.99,,2013-10-29 06:26:00,
2013-10-29 02:52:00,44.0,33.0,30.33,NE,54,6.0,14.0,65,-99.99,,,-99.99,,2013-10-29 06:52:00,
2013-10-29 03:01:00,44.0,33.0,30.33,NE,54,6.0,14.0,65,-99.99,,,-99.99,,2013-10-29 07:01:00,
2013-10-29 03:25:00,44.0,34.0,30.34,NE,52,8.0,10.0,68,-99.99,,,-99.99,,2013-10-29 07:25:00,
2013-10-29 03:55:00,44.0,34.0,30.34,ENE,66,5.0,8.0,68,-99.99,,,-99.99,,2013-10-29 07:55:00,
2013-10-29 04:05:00,44.0,34.0,30.34,ENE,66,5.0,8.0,68,-99.99,,,-99.99,,2013-10-29 08:05:00,
2013-10-29 04:24:00,44.0,34.0,30.34,NNE,33,4.0,11.0,67,-99.99,,,-99.99,,2013-10-29 08:24:00,
2013-10-29 04:52:00,44.0,34.0,30.35,NE,52,9.0,11.0,68,-99.99,,,-99.99,,2013-10-29 08:52:00,
2013-10-29 05:21:00,44.0,34.0,30.36,NE,45,6.0,7.0,69,-99.99,,,-99.99,,2013-10-29 09:21:00,
2013-10-29 05:53:00,43.0,34.0,30.37,NE,39,6.0,9.0,70,-99.99,,,-99.99,,2013-10-29 09:53:00,
2013-10-29 06:23:00,43.0,34.0,30.38,North,358,7.0,8.0,70,-99.99,,,-99.99,,2013-10-29 10:23:00,
2013-10-29 06:53:00,43.0,34.0,30.38,NNE,28,9.0,9.0,69,-99.99,,,-99.99,,2013-10-29 10:53:00,
2013-10-29 07:22:00,43.0,34.0,30.38,NNE,22,5.0,6.0,69,-99.99,,,-99.99,,2013-10-29 11:22:00,
2013-10-29 07:52:00,43.0,34.0,30.38,NNE,18,4.0,7.0,71,-99.99,,,-99.99,,2013-10-29 11:52:00,
2013-10-29 08:12:00,43.0,34.0,30.40,North,358,0.0,6.0,71,-99.99,,,-99.99,,2013-10-29 12:12:00,
2013-10-29 08:21:00,43.0,34.0,30.40,North,358,0.0,6.0,71,-99.99,,,-99.99,,2013-10-29 12:21:00,
2013-10-29 08:52:00,44.0,35.0,30.40,NNE,22,7.0,9.0,71,-99.99,,,-99.99,,2013-10-29 12:52:00,
2013-10-29 09:21:00,44.0,34.0,30.41,NE,46,6.0,6.0,69,-99.99,,,-99.99,,2013-10-29 13:21:00,
2013-10-29 09:42:00,45.0,35.0,30.41,North,7,6.0,7.0,69,-99.99,,,-99.99,,2013-10-29 13:42:00,
2013-10-29 09:52:00,46.0,36.0,30.41,ENE,63,7.0,8.0,67,-99.99,,,-99.99,,2013-10-29 13:52:00,
2013-10-29 10:22:00,46.0,35.0,30.41,NE,52,6.0,9.0,66,-99.99,,,-99.99,,2013-10-29 14:22:00,
2013-10-29 10:52:00,47.0,35.0,30.40,North,354,5.0,9.0,64,-99.99,,,-99.99,,2013-10-29 14:52:00,
2013-10-29 11:22:00,47.0,35.0,30.40,NE,52,4.0,9.0,63,-99.99,,,-99.99,,2013-10-29 15:22:00,
2013-10-29 11:54:00,48.0,35.0,30.39,NE,35,7.0,10.0,61,-99.99,,,-99.99,,2013-10-29 15:54:00,
2013-10-29 12:03:00,48.0,35.0,30.39,NE,35,7.0,10.0,61,-99.99,,,-99.99,,2013-10-29 16:03:00,
2013-10-29 12:23:00,49.0,35.0,30.38,East,81,2.0,11.0,58,-99.99,,,-99.99,,2013-10-29 16:23:00,
2013-10-29 12:33:00,49.0,35.0,30.38,East,81,2.0,11.0,58,-99.99,,,-99.99,,2013-10-29 16:33:00,
2013-10-29 12:53:00,49.0,34.0,30.37,North,355,0.0,6.0,57,-99.99,,,-99.99,,2013-10-29 16:53:00,
2013-10-29 13:22:00,50.0,34.0,30.36,North,1,5.0,11.0,53,-99.99,,,-99.99,,2013-10-29 17:22:00,
2013-10-29 13:42:00,50.0,33.0,30.36,North,358,5.0,6.0,52,-99.99,,,-99.99,,2013-10-29 17:42:00,
2013-10-29 13:52:00,50.0,34.0,30.35,NE,40,5.0,6.0,55,-99.99,,,-99.99,,2013-10-29 17:52:00,
2013-10-29 14:21:00,50.0,34.0,30.35,NNW,331,3.0,5.0,54,-99.99,,,-99.99,,2013-10-29 18:21:00,
2013-10-29 14:52:00,48.0,33.0,30.35,NNW,347,2.0,5.0,55,-99.99,,,-99.99,,2013-10-29 18:52:00,
2013-10-29 15:22:00,49.0,33.0,30.35,NE,36,0.0,5.0,54,-99.99,,,-99.99,,2013-10-29 19:22:00,
2013-10-29 15:53:00,48.0,32.0,30.35,NW,320,0.0,0.0,54,-99.99,,,-99.99,,2013-10-29 19:53:00,
2013-10-29 16:22:00,49.0,33.0,30.35,NW,320,0.0,0.0,54,-99.99,,,-99.99,,2013-10-29 20:22:00,
2013-10-29 16:52:00,49.0,33.0,30.35,NW,313,0.0,0.0,53,-99.99,,,-99.99,,2013-10-29 20:52:00,
2013-10-29 17:22:00,48.0,33.0,30.34,NW,313,0.0,0.0,55,-99.99,,,-99.99,,2013-10-29 21:22:00,
2013-10-29 17:54:00,47.0,33.0,30.34,NW,313,0.0,0.0,59,-99.99,,,-99.99,,2013-10-29 21:54:00,
2013-10-29 18:04:00,47.0,33.0,30.34,NW,313,0.0,0.0,59,-99.99,,,-99.99,,2013-10-29 22:04:00,
2013-10-29 18:23:00,45.0,33.0,30.33,NW,313,0.0,0.0,62,-99.99,,,-99.99,,2013-10-29 22:23:00,
2013-10-29 18:53:00,45.0,34.0,30.34,NW,313,0.0,0.0,64,-99.99,,,-99.99,,2013-10-29 22:53:00,
2013-10-29 19:22:00,44.0,33.0,30.34,NW,313,0.0,0.0,66,-99.99,,,-99.99,,2013-10-29 23:22:00,
2013-10-29 19:53:00,44.0,34.0,30.34,NW,313,0.0,0.0,67,-99.99,,,-99.99,,2013-10-29 23:53:00,
2013-10-29 20:02:00,44.0,34.0,30.34,NW,313,0.0,0.0,67,-99.99,,,-99.99,,2013-10-30 00:02:00,
2013-10-29 20:22:00,44.0,35.0,30.34,NW,313,0.0,0.0,70,-99.99,,,-99.99,,2013-10-30 00:22:00,
2013-10-29 20:42:00,44.0,35.0,30.35,NW,313,0.0,0.0,71,-99.99,,,-99.99,,2013-10-30 00:42:00,
2013-10-29 21:22:00,44.0,36.0,30.35,NW,313,0.0,0.0,73,-99.99,,,-99.99,,2013-10-30 01:22:00,
2013-10-29 21:52:00,45.0,37.0,30.34,WSW,254,0.0,0.0,74,-99.99,,,-99.99,,2013-10-30 01:52:00,
2013-10-29 22:52:00,44.0,36.0,30.35,WNW,289,0.0,0.0,73,-99.99,,,-99.99,,2013-10-30 02:52:00,
2013-10-29 23:02:00,44.0,36.0,30.35,WNW,289,0.0,0.0,73,-99.99,,,-99.99,,2013-10-30 03:02:00,
2013-10-29 23:11:00,44.0,36.0,30.35,WNW,289,0.0,0.0,73,-99.99,,,-99.99,,2013-10-30 03:11:00,
2013-10-29 23:22:00,44.0,36.0,30.35,WNW,289,0.0,0.0,73,-99.99,,,-99.99,,2013-10-30 03:22:00,
2013-10-29 23:54:00,44.0,34.0,30.34,WNW,289,0.0,0.0,69,-99.99,,,-99.99,,2013-10-30 03:54:00,